Terminal Aerodrome Forecast
Issued by NWS

Current Version | Previous Version | Graphics & Text | Print | Product List | Glossary On
Versions: 1 2 3 4 5 6 7 8 9 10 11 12 13 14 15 16 17 18 19 20
449
FTUS41 KPBZ 041121
TAFHLG
TAF
KHLG 041121Z 0412/0512 12003KT P6SM OVC090
     FM050300 14006KT P6SM -SHRA OVC035
     FM050500 17006KT 4SM -SHRA OVC015
     FM050800 27010KT P6SM VCSH BKN008=

USA.gov is the U.S. government's official web portal to all federal, state and local government web resources and services.